createdAt,value
2019-06-26T00:00:42.778Z,23.30
2019-06-26T00:05:48.302Z,23.30
2019-06-26T00:10:53.823Z,23.30
2019-06-26T00:15:59.339Z,23.30
2019-06-26T00:21:04.856Z,23.30
2019-06-26T00:26:10.299Z,23.30
2019-06-26T00:31:15.744Z,23.30
2019-06-26T00:36:21.251Z,23.30
2019-06-26T00:41:26.861Z,23.30
2019-06-26T00:46:32.513Z,23.30
2019-06-26T00:51:38.062Z,23.30
2019-06-26T00:56:43.515Z,23.30
2019-06-26T01:01:49.127Z,23.30
2019-06-26T01:06:54.646Z,23.30
2019-06-26T01:12:00.175Z,23.30
2019-06-26T01:17:05.766Z,23.30
2019-06-26T01:22:11.380Z,23.30
2019-06-26T01:27:16.860Z,23.30
2019-06-26T01:32:22.390Z,23.30
2019-06-26T01:37:27.834Z,23.30
2019-06-26T01:42:33.283Z,23.30
2019-06-26T01:47:38.793Z,23.30
2019-06-26T01:52:44.398Z,23.30
2019-06-26T01:57:49.841Z,23.30
2019-06-26T02:02:55.455Z,23.30
2019-06-26T02:08:00.971Z,23.30
2019-06-26T02:13:06.560Z,23.30
2019-06-26T02:18:29.586Z,23.30
2019-06-26T02:23:35.115Z,23.30
2019-06-26T02:28:40.581Z,23.30
2019-06-26T02:33:46.027Z,23.30
2019-06-26T02:38:51.496Z,23.30
2019-06-26T02:43:57.005Z,23.30
2019-06-26T02:49:02.461Z,23.30
2019-06-26T02:54:08.000Z,23.30
2019-06-26T02:59:13.435Z,23.30
2019-06-26T03:04:18.901Z,23.30
2019-06-26T03:09:24.401Z,23.30
2019-06-26T03:14:29.904Z,23.30
2019-06-26T03:19:35.411Z,23.30
2019-06-26T03:24:40.939Z,23.30
2019-06-26T03:29:46.866Z,23.30
2019-06-26T03:34:52.437Z,23.50
2019-06-26T03:39:57.980Z,23.60
2019-06-26T03:45:04.727Z,23.60
2019-06-26T03:50:10.383Z,23.70
2019-06-26T03:55:16.472Z,23.60
2019-06-26T04:00:40.619Z,23.70
2019-06-26T04:05:46.513Z,23.70
2019-06-26T04:10:52.001Z,23.70
2019-06-26T04:15:57.537Z,23.80
2019-06-26T04:21:03.150Z,23.80
2019-06-26T04:26:08.683Z,23.80
2019-06-26T04:31:14.148Z,23.90
2019-06-26T04:36:19.695Z,23.90
2019-06-26T04:41:25.250Z,24.00
2019-06-26T04:46:30.735Z,24.10
2019-06-26T04:51:36.278Z,24.20
2019-06-26T04:56:41.770Z,24.20
2019-06-26T05:01:47.245Z,24.30
2019-06-26T05:06:52.793Z,24.40
2019-06-26T05:11:58.300Z,24.40
2019-06-26T05:17:03.873Z,24.40
2019-06-26T05:22:09.395Z,24.40
2019-06-26T05:27:14.882Z,24.40
2019-06-26T05:32:20.399Z,24.40
2019-06-26T05:37:25.942Z,24.40
2019-06-26T05:42:31.408Z,24.40
2019-06-26T05:47:36.950Z,24.40
2019-06-26T05:52:43.271Z,24.40
2019-06-26T05:57:48.824Z,24.40
2019-06-26T06:02:54.364Z,24.30
2019-06-26T06:07:59.808Z,24.20
2019-06-26T06:13:05.364Z,24.20
2019-06-26T06:18:10.949Z,24.20
2019-06-26T06:23:18.094Z,24.20
2019-06-26T06:28:23.768Z,24.10
2019-06-26T06:33:29.249Z,24.10
2019-06-26T06:38:34.737Z,24.00
2019-06-26T06:43:40.269Z,24.00
2019-06-26T06:48:45.755Z,24.00
2019-06-26T06:53:51.196Z,24.00
2019-06-26T06:58:56.642Z,24.00
2019-06-26T07:04:02.217Z,24.00
2019-06-26T07:09:08.034Z,24.00
2019-06-26T07:14:13.501Z,24.00
2019-06-26T07:19:19.038Z,24.00
2019-06-26T07:24:24.517Z,23.90
2019-06-26T07:29:30.105Z,24.00
2019-06-26T07:34:35.722Z,24.00
2019-06-26T07:39:41.224Z,24.00
2019-06-26T07:44:46.746Z,24.00
2019-06-26T07:49:52.194Z,24.00
2019-06-26T07:54:57.644Z,24.00
2019-06-26T08:00:03.146Z,24.00
2019-06-26T08:05:10.544Z,24.00
2019-06-26T08:10:16.017Z,24.10
2019-06-26T08:15:21.505Z,24.00
2019-06-26T08:20:26.965Z,24.10
2019-06-26T08:25:32.417Z,24.10
2019-06-26T08:30:37.897Z,24.10
2019-06-26T08:35:43.373Z,24.20
2019-06-26T08:40:48.899Z,24.10
2019-06-26T08:45:54.362Z,24.20
2019-06-26T08:51:00.947Z,24.20
2019-06-26T08:56:06.453Z,24.20
2019-06-26T09:01:11.924Z,24.20
2019-06-26T09:06:17.395Z,24.20
2019-06-26T09:11:22.986Z,24.20
2019-06-26T09:16:28.544Z,24.20
2019-06-26T09:21:34.016Z,24.30
2019-06-26T09:26:39.485Z,24.20
2019-06-26T09:31:44.965Z,24.30
2019-06-26T09:36:50.429Z,24.30
2019-06-26T09:41:55.910Z,24.30
2019-06-26T09:47:01.537Z,24.30
2019-06-26T09:52:07.149Z,24.30
2019-06-26T09:57:12.695Z,24.30
2019-06-26T10:07:43.470Z,24.30
2019-06-26T10:12:48.919Z,24.30
2019-06-26T10:17:54.358Z,24.30
2019-06-26T10:22:59.911Z,24.30
2019-06-26T10:28:05.423Z,24.40
2019-06-26T10:33:10.949Z,24.40
2019-06-26T10:38:16.381Z,24.40
2019-06-26T10:43:21.927Z,24.40
2019-06-26T10:48:27.399Z,24.40
2019-06-26T10:53:32.828Z,24.40
2019-06-26T10:58:38.342Z,24.40
2019-06-26T11:03:43.842Z,24.40
2019-06-26T11:08:49.288Z,24.40
2019-06-26T11:13:54.821Z,24.40
2019-06-26T11:19:00.344Z,24.40
2019-06-26T11:24:05.781Z,24.40
2019-06-26T11:29:11.223Z,24.40
2019-06-26T11:34:16.762Z,24.40
2019-06-26T11:39:22.252Z,24.50
2019-06-26T11:44:27.731Z,24.40
2019-06-26T11:49:33.188Z,24.50
2019-06-26T11:54:38.638Z,24.50
2019-06-26T11:59:44.159Z,24.50
2019-06-26T12:04:49.638Z,24.50
2019-06-26T12:09:55.318Z,24.50
2019-06-26T12:15:00.818Z,24.50
2019-06-26T12:20:18.087Z,24.50
2019-06-26T12:25:14.205Z,24.50
2019-06-26T12:30:19.750Z,24.50
2019-06-26T12:35:25.239Z,24.60
2019-06-26T12:40:31.496Z,24.50
2019-06-26T12:45:37.082Z,24.50
2019-06-26T12:50:42.608Z,24.60
2019-06-26T12:55:48.047Z,24.60
2019-06-26T13:00:53.541Z,24.60
2019-06-26T13:05:59.008Z,24.60
2019-06-26T13:11:04.560Z,24.60
2019-06-26T13:16:09.995Z,24.60
2019-06-26T13:21:15.471Z,24.60
2019-06-26T13:26:21.136Z,24.60
2019-06-26T13:31:26.640Z,24.60
2019-06-26T13:36:32.174Z,24.60
2019-06-26T13:41:37.758Z,24.70
2019-06-26T13:46:43.223Z,24.70
2019-06-26T13:51:49.138Z,24.70
2019-06-26T13:56:54.613Z,24.70
2019-06-26T14:02:00.060Z,24.70
2019-06-26T14:07:08.527Z,24.70
2019-06-26T14:12:12.711Z,24.70
2019-06-26T14:17:18.144Z,24.70
2019-06-26T14:22:23.576Z,24.80
2019-06-26T14:27:29.032Z,24.70
2019-06-26T14:32:34.464Z,24.80
2019-06-26T14:37:39.890Z,24.80
2019-06-26T14:42:45.372Z,24.80
2019-06-26T14:47:50.867Z,24.80
2019-06-26T14:52:56.294Z,24.90
2019-06-26T14:58:01.733Z,24.90
2019-06-26T15:03:07.188Z,24.90
2019-06-26T15:08:12.699Z,24.90
2019-06-26T15:13:18.228Z,24.90
2019-06-26T15:18:23.682Z,24.90
2019-06-26T15:23:29.135Z,24.90
2019-06-26T15:28:34.658Z,24.90
2019-06-26T15:33:40.105Z,24.90
2019-06-26T15:38:45.558Z,24.90
2019-06-26T15:43:51.092Z,24.90
2019-06-26T15:48:56.546Z,24.90
2019-06-26T15:54:02.130Z,25.00
2019-06-26T15:59:07.565Z,25.00
2019-06-26T16:04:13.024Z,25.00
2019-06-26T16:09:18.465Z,24.90
2019-06-26T16:14:23.985Z,25.00
2019-06-26T16:19:31.092Z,25.00
2019-06-26T16:24:36.737Z,25.00
2019-06-26T16:29:42.624Z,25.00
2019-06-26T16:34:48.348Z,25.00
2019-06-26T16:39:54.151Z,25.00
2019-06-26T16:44:59.596Z,25.10
2019-06-26T16:50:06.484Z,25.10
2019-06-26T16:55:12.010Z,25.20
2019-06-26T17:00:18.984Z,25.10
2019-06-26T17:05:24.493Z,25.10
2019-06-26T17:10:30.022Z,25.20
2019-06-26T17:15:35.746Z,25.20
2019-06-26T17:20:41.452Z,25.20
2019-06-26T17:25:46.964Z,25.20
2019-06-26T17:30:53.040Z,25.20
2019-06-26T17:35:58.618Z,25.30
2019-06-26T17:41:04.137Z,25.40
2019-06-26T17:46:09.669Z,25.50
2019-06-26T17:51:15.170Z,25.60
2019-06-26T17:56:20.672Z,25.70
2019-06-26T18:01:26.263Z,25.80
2019-06-26T18:06:31.794Z,25.90
2019-06-26T18:11:37.446Z,25.90
2019-06-26T18:16:42.947Z,25.90
2019-06-26T18:21:48.420Z,26.10
2019-06-26T18:26:53.882Z,26.00
2019-06-26T18:31:59.392Z,26.00
2019-06-26T18:37:04.917Z,26.00
2019-06-26T18:42:10.638Z,26.00
2019-06-26T18:47:17.768Z,26.00
2019-06-26T18:52:23.388Z,26.00
2019-06-26T18:57:28.857Z,26.00
2019-06-26T19:02:34.333Z,26.00
2019-06-26T19:07:39.817Z,26.00
2019-06-26T19:12:45.294Z,26.00
2019-06-26T19:17:50.786Z,26.00
2019-06-26T19:22:56.346Z,26.00
2019-06-26T19:28:01.843Z,25.90
2019-06-26T19:33:07.341Z,26.00
2019-06-26T19:38:12.969Z,26.10
2019-06-26T19:43:18.542Z,26.00
2019-06-26T19:48:24.086Z,26.10
2019-06-26T19:53:29.583Z,26.10
2019-06-26T19:58:35.051Z,26.00
2019-06-26T20:03:40.606Z,25.90
2019-06-26T20:08:54.562Z,25.80
2019-06-26T20:13:53.293Z,25.80
2019-06-26T20:18:58.766Z,25.70
2019-06-26T20:24:04.299Z,25.70
2019-06-26T20:29:09.786Z,25.60
2019-06-26T20:34:15.243Z,25.60
2019-06-26T20:39:20.805Z,25.60
2019-06-26T20:44:26.384Z,25.60
2019-06-26T20:49:31.924Z,25.50
2019-06-26T20:54:37.393Z,25.50
2019-06-26T20:59:42.896Z,25.50
2019-06-26T21:04:48.383Z,25.40
2019-06-26T21:09:54.010Z,25.40
2019-06-26T21:14:59.502Z,25.40
2019-06-26T21:20:06.376Z,25.30
2019-06-26T21:25:19.073Z,25.30
2019-06-26T21:30:20.246Z,25.30
2019-06-26T21:35:25.875Z,25.30
2019-06-26T21:40:31.316Z,25.20
2019-06-26T21:45:36.760Z,25.20
2019-06-26T21:50:42.224Z,25.20
2019-06-26T21:55:47.660Z,25.20
2019-06-26T22:01:10.594Z,25.20
2019-06-26T22:12:04.735Z,25.10
2019-06-26T22:17:10.366Z,25.10
2019-06-26T22:22:16.018Z,25.10
2019-06-26T22:27:21.571Z,25.10
2019-06-26T22:32:27.130Z,25.10
2019-06-26T22:37:32.677Z,25.10
2019-06-26T22:42:38.241Z,25.00
2019-06-26T22:47:43.677Z,25.00
2019-06-26T22:52:50.226Z,25.00
2019-06-26T22:57:55.700Z,25.10
2019-06-26T23:03:01.182Z,25.00
2019-06-26T23:08:06.835Z,25.00
2019-06-26T23:13:12.455Z,25.00
2019-06-26T23:18:17.919Z,25.00
2019-06-26T23:23:23.426Z,24.90
2019-06-26T23:28:28.896Z,24.90
2019-06-26T23:33:34.353Z,24.90
2019-06-26T23:38:39.915Z,24.90
2019-06-26T23:43:45.374Z,24.90
2019-06-26T23:48:50.863Z,24.90
2019-06-26T23:53:56.334Z,24.90
2019-06-26T23:59:01.826Z,24.90
